sensor_id;sensor_type;location;lat;lon;timestamp;pressure;altitude;pressure_sealevel;temperature;humidity
2339;BME280;1180;51.438;6.978;2023-04-06T00:00:48;100489.22;;;8.80;47.50
2339;BME280;1180;51.438;6.978;2023-04-06T00:03:15;100494.31;;;8.80;47.19
2339;BME280;1180;51.438;6.978;2023-04-06T00:05:41;100487.75;;;8.74;47.76
2339;BME280;1180;51.438;6.978;2023-04-06T00:08:06;100485.34;;;8.71;47.90
2339;BME280;1180;51.438;6.978;2023-04-06T00:10:32;100489.31;;;8.59;47.95
2339;BME280;1180;51.438;6.978;2023-04-06T00:12:58;100484.31;;;8.75;47.96
2339;BME280;1180;51.438;6.978;2023-04-06T00:15:24;100486.84;;;8.75;47.62
2339;BME280;1180;51.438;6.978;2023-04-06T00:17:50;100482.94;;;8.68;47.77
2339;BME280;1180;51.438;6.978;2023-04-06T00:20:16;100478.88;;;8.64;47.92
2339;BME280;1180;51.438;6.978;2023-04-06T00:22:43;100478.56;;;8.70;47.87
2339;BME280;1180;51.438;6.978;2023-04-06T00:25:09;100472.47;;;8.55;48.43
2339;BME280;1180;51.438;6.978;2023-04-06T00:27:36;100468.31;;;8.52;48.27
2339;BME280;1180;51.438;6.978;2023-04-06T00:30:03;100469.81;;;8.57;48.22
2339;BME280;1180;51.438;6.978;2023-04-06T00:32:28;100465.53;;;8.57;48.34
2339;BME280;1180;51.438;6.978;2023-04-06T00:34:53;100465.94;;;8.48;48.46
2339;BME280;1180;51.438;6.978;2023-04-06T00:37:19;100468.25;;;8.54;48.29
2339;BME280;1180;51.438;6.978;2023-04-06T00:39:44;100457.59;;;8.44;48.57
2339;BME280;1180;51.438;6.978;2023-04-06T00:42:13;100455.84;;;8.45;48.22
2339;BME280;1180;51.438;6.978;2023-04-06T00:44:42;100453.72;;;8.55;48.16
2339;BME280;1180;51.438;6.978;2023-04-06T00:47:07;100452.97;;;8.52;48.33
2339;BME280;1180;51.438;6.978;2023-04-06T00:49:34;100448.84;;;8.50;48.77
2339;BME280;1180;51.438;6.978;2023-04-06T00:52:00;100451.84;;;8.58;48.78
2339;BME280;1180;51.438;6.978;2023-04-06T00:54:27;100448.44;;;8.58;48.41
2339;BME280;1180;51.438;6.978;2023-04-06T00:56:52;100443.56;;;8.53;48.64
2339;BME280;1180;51.438;6.978;2023-04-06T00:59:18;100437.28;;;8.41;48.92
2339;BME280;1180;51.438;6.978;2023-04-06T01:01:43;100432.97;;;8.42;49.15
2339;BME280;1180;51.438;6.978;2023-04-06T01:04:09;100428.91;;;8.37;49.46
2339;BME280;1180;51.438;6.978;2023-04-06T01:06:34;100426.72;;;8.30;49.50
2339;BME280;1180;51.438;6.978;2023-04-06T01:08:59;100429.03;;;8.34;49.10
2339;BME280;1180;51.438;6.978;2023-04-06T01:11:25;100421.38;;;8.34;48.97
2339;BME280;1180;51.438;6.978;2023-04-06T01:13:51;100421.72;;;8.27;48.96
2339;BME280;1180;51.438;6.978;2023-04-06T01:16:17;100421.72;;;8.27;49.05
2339;BME280;1180;51.438;6.978;2023-04-06T01:18:42;100420.72;;;8.31;49.02
2339;BME280;1180;51.438;6.978;2023-04-06T01:21:08;100416.06;;;8.39;49.19
2339;BME280;1180;51.438;6.978;2023-04-06T01:23:35;100409.44;;;8.35;49.03
2339;BME280;1180;51.438;6.978;2023-04-06T01:26:00;100410.94;;;8.39;49.13
2339;BME280;1180;51.438;6.978;2023-04-06T01:28:26;100407.28;;;8.26;49.46
2339;BME280;1180;51.438;6.978;2023-04-06T01:30:51;100408.88;;;8.28;49.83
2339;BME280;1180;51.438;6.978;2023-04-06T01:33:16;100407.94;;;8.31;49.36
2339;BME280;1180;51.438;6.978;2023-04-06T01:35:42;100408.38;;;8.39;49.09
2339;BME280;1180;51.438;6.978;2023-04-06T01:38:07;100399.06;;;8.38;49.34
2339;BME280;1180;51.438;6.978;2023-04-06T01:40:33;100395.16;;;8.48;49.31
2339;BME280;1180;51.438;6.978;2023-04-06T01:42:58;100397.53;;;8.53;49.17
2339;BME280;1180;51.438;6.978;2023-04-06T01:45:23;100395.63;;;8.57;48.94
2339;BME280;1180;51.438;6.978;2023-04-06T01:47:49;100397.69;;;8.50;48.97
2339;BME280;1180;51.438;6.978;2023-04-06T01:50:14;100396.94;;;8.46;48.61
2339;BME280;1180;51.438;6.978;2023-04-06T01:52:40;100393.97;;;8.56;48.83
2339;BME280;1180;51.438;6.978;2023-04-06T01:55:06;100397.53;;;8.53;48.98
2339;BME280;1180;51.438;6.978;2023-04-06T01:57:32;100389.84;;;8.53;48.84
2339;BME280;1180;51.438;6.978;2023-04-06T01:59:57;100390.75;;;8.52;48.54
2339;BME280;1180;51.438;6.978;2023-04-06T02:02:22;100387.03;;;8.40;48.77
2339;BME280;1180;51.438;6.978;2023-04-06T02:04:48;100396.00;;;8.49;48.76
2339;BME280;1180;51.438;6.978;2023-04-06T02:07:13;100393.97;;;8.56;48.70
2339;BME280;1180;51.438;6.978;2023-04-06T02:09:39;100387.28;;;8.53;48.73
2339;BME280;1180;51.438;6.978;2023-04-06T02:12:05;100391.91;;;8.45;49.44
2339;BME280;1180;51.438;6.978;2023-04-06T02:14:30;100385.28;;;8.41;49.46
2339;BME280;1180;51.438;6.978;2023-04-06T02:16:55;100387.69;;;8.44;49.62
2339;BME280;1180;51.438;6.978;2023-04-06T02:19:21;100389.59;;;8.40;49.57
2339;BME280;1180;51.438;6.978;2023-04-06T02:21:47;100385.06;;;8.45;49.59
2339;BME280;1180;51.438;6.978;2023-04-06T02:24:12;100390.78;;;8.33;49.52
2339;BME280;1180;51.438;6.978;2023-04-06T02:26:38;100386.28;;;8.38;49.51
2339;BME280;1180;51.438;6.978;2023-04-06T02:29:03;100384.97;;;8.29;50.06
2339;BME280;1180;51.438;6.978;2023-04-06T02:31:29;100381.47;;;8.32;50.22
2339;BME280;1180;51.438;6.978;2023-04-06T02:33:55;100382.50;;;8.45;49.67
2339;BME280;1180;51.438;6.978;2023-04-06T02:36:20;100372.59;;;8.39;49.74
2339;BME280;1180;51.438;6.978;2023-04-06T02:38:45;100376.09;;;8.36;49.84
2339;BME280;1180;51.438;6.978;2023-04-06T02:41:11;100376.44;;;8.48;49.62
2339;BME280;1180;51.438;6.978;2023-04-06T02:43:36;100371.44;;;8.45;49.38
2339;BME280;1180;51.438;6.978;2023-04-06T02:46:01;100370.78;;;8.41;49.64
2339;BME280;1180;51.438;6.978;2023-04-06T02:48:27;100367.53;;;8.37;49.87
2339;BME280;1180;51.438;6.978;2023-04-06T02:50:52;100368.88;;;8.27;50.05
2339;BME280;1180;51.438;6.978;2023-04-06T02:53:18;100362.19;;;8.24;50.15
2339;BME280;1180;51.438;6.978;2023-04-06T02:55:43;100365.63;;;8.23;50.45
2339;BME280;1180;51.438;6.978;2023-04-06T02:58:08;100358.41;;;8.14;50.24
2339;BME280;1180;51.438;6.978;2023-04-06T03:00:34;100359.84;;;8.20;50.61
2339;BME280;1180;51.438;6.978;2023-04-06T03:02:59;100363.16;;;8.22;50.19
2339;BME280;1180;51.438;6.978;2023-04-06T03:05:25;100366.47;;;8.24;50.15
2339;BME280;1180;51.438;6.978;2023-04-06T03:07:50;100362.72;;;8.14;50.22
2339;BME280;1180;51.438;6.978;2023-04-06T03:10:16;100359.38;;;8.12;50.26
2339;BME280;1180;51.438;6.978;2023-04-06T03:12:41;100353.59;;;8.08;50.27
2339;BME280;1180;51.438;6.978;2023-04-06T03:15:07;100358.34;;;8.16;50.35
2339;BME280;1180;51.438;6.978;2023-04-06T03:17:33;100351.13;;;8.24;50.39
2339;BME280;1180;51.438;6.978;2023-04-06T03:19:58;100359.72;;;8.23;50.45
2339;BME280;1180;51.438;6.978;2023-04-06T03:22:23;100357.16;;;8.23;50.46
2339;BME280;1180;51.438;6.978;2023-04-06T03:24:49;100356.47;;;8.19;50.41
2339;BME280;1180;51.438;6.978;2023-04-06T03:27:14;100359.25;;;8.15;50.65
2339;BME280;1180;51.438;6.978;2023-04-06T03:29:40;100358.50;;;8.13;50.72
2339;BME280;1180;51.438;6.978;2023-04-06T03:32:05;100358.06;;;8.22;50.84
2339;BME280;1180;51.438;6.978;2023-04-06T03:34:30;100361.72;;;8.16;50.98
2339;BME280;1180;51.438;6.978;2023-04-06T03:36:56;100361.88;;;8.13;50.86
2339;BME280;1180;51.438;6.978;2023-04-06T03:39:21;100363.53;;;8.14;50.87
2339;BME280;1180;51.438;6.978;2023-04-06T03:41:46;100367.47;;;8.02;50.85
2339;BME280;1180;51.438;6.978;2023-04-06T03:44:12;100363.50;;;7.97;51.28
2339;BME280;1180;51.438;6.978;2023-04-06T03:46:37;100359.94;;;7.99;51.33
2339;BME280;1180;51.438;6.978;2023-04-06T03:49:03;100361.31;;;8.06;51.19
2339;BME280;1180;51.438;6.978;2023-04-06T03:51:28;100362.38;;;8.02;51.20
2339;BME280;1180;51.438;6.978;2023-04-06T03:53:53;100367.47;;;8.02;51.04
2339;BME280;1180;51.438;6.978;2023-04-06T03:56:19;100362.38;;;7.83;51.05
2339;BME280;1180;51.438;6.978;2023-04-06T03:58:45;100362.72;;;7.75;51.44
2339;BME280;1180;51.438;6.978;2023-04-06T04:01:11;100362.38;;;7.83;51.27
2339;BME280;1180;51.438;6.978;2023-04-06T04:03:36;100365.91;;;8.00;51.39
2339;BME280;1180;51.438;6.978;2023-04-06T04:06:01;100360.34;;;8.09;51.09
2339;BME280;1180;51.438;6.978;2023-04-06T04:08:27;100359.91;;;8.01;51.36
2339;BME280;1180;51.438;6.978;2023-04-06T04:10:52;100363.50;;;7.97;51.18
2339;BME280;1180;51.438;6.978;2023-04-06T04:13:19;100360.31;;;7.91;51.27
2339;BME280;1180;51.438;6.978;2023-04-06T04:15:44;100363.63;;;7.93;51.21
2339;BME280;1180;51.438;6.978;2023-04-06T04:18:10;100360.59;;;7.85;51.04
2339;BME280;1180;51.438;6.978;2023-04-06T04:20:35;100358.66;;;7.71;51.37
2339;BME280;1180;51.438;6.978;2023-04-06T04:23:01;100357.44;;;7.80;51.69
2339;BME280;1180;51.438;6.978;2023-04-06T04:25:26;100355.44;;;7.87;51.31
2339;BME280;1180;51.438;6.978;2023-04-06T04:27:51;100361.34;;;7.87;50.88
2339;BME280;1180;51.438;6.978;2023-04-06T04:30:17;100359.41;;;7.92;51.08
2339;BME280;1180;51.438;6.978;2023-04-06T04:32:42;100354.72;;;7.83;50.86
2339;BME280;1180;51.438;6.978;2023-04-06T04:35:08;100357.56;;;7.77;51.30
2339;BME280;1180;51.438;6.978;2023-04-06T04:37:33;100365.56;;;7.88;51.08
2339;BME280;1180;51.438;6.978;2023-04-06T04:40:00;100350.84;;;7.93;50.89
2339;BME280;1180;51.438;6.978;2023-04-06T04:42:25;100353.28;;;7.97;50.64
2339;BME280;1180;51.438;6.978;2023-04-06T04:44:51;100353.53;;;7.90;50.88
2339;BME280;1180;51.438;6.978;2023-04-06T04:47:16;100348.25;;;7.76;51.25
2339;BME280;1180;51.438;6.978;2023-04-06T04:49:42;100346.41;;;7.79;50.72
2339;BME280;1180;51.438;6.978;2023-04-06T04:52:07;100344.44;;;7.85;50.85
2339;BME280;1180;51.438;6.978;2023-04-06T04:54:32;100347.53;;;7.91;50.42
2339;BME280;1180;51.438;6.978;2023-04-06T04:56:58;100345.34;;;7.84;50.94
2339;BME280;1180;51.438;6.978;2023-04-06T04:59:23;100349.75;;;7.80;50.97
2339;BME280;1180;51.438;6.978;2023-04-06T05:01:48;100359.28;;;7.57;51.45
2339;BME280;1180;51.438;6.978;2023-04-06T05:04:14;100352.03;;;7.48;51.41
2339;BME280;1180;51.438;6.978;2023-04-06T05:06:39;100349.72;;;7.62;51.45
2339;BME280;1180;51.438;6.978;2023-04-06T05:09:05;100343.44;;;7.70;51.21
2339;BME280;1180;51.438;6.978;2023-04-06T05:11:30;100354.59;;;7.67;51.10
2339;BME280;1180;51.438;6.978;2023-04-06T05:13:56;100346.25;;;7.63;51.28
2339;BME280;1180;51.438;6.978;2023-04-06T05:16:21;100350.09;;;7.72;51.08
2339;BME280;1180;51.438;6.978;2023-04-06T05:18:47;100347.50;;;7.74;50.77
2339;BME280;1180;51.438;6.978;2023-04-06T05:21:13;100344.03;;;7.75;50.66
2339;BME280;1180;51.438;6.978;2023-04-06T05:23:41;100345.56;;;7.79;50.45
2339;BME280;1180;51.438;6.978;2023-04-06T05:26:07;100346.31;;;7.81;50.25
2339;BME280;1180;51.438;6.978;2023-04-06T05:28:32;100359.22;;;7.78;50.44
2339;BME280;1180;51.438;6.978;2023-04-06T05:30:58;100348.94;;;7.79;50.65
2339;BME280;1180;51.438;6.978;2023-04-06T05:33:24;100352.94;;;7.85;50.37
2339;BME280;1180;51.438;6.978;2023-04-06T05:35:50;100351.88;;;7.89;50.39
2339;BME280;1180;51.438;6.978;2023-04-06T05:38:15;100353.53;;;7.90;50.22
2339;BME280;1180;51.438;6.978;2023-04-06T05:40:40;100350.94;;;7.92;50.39
2339;BME280;1180;51.438;6.978;2023-04-06T05:43:07;100349.56;;;7.85;50.57
2339;BME280;1180;51.438;6.978;2023-04-06T05:45:33;100346.25;;;7.83;50.48
2339;BME280;1180;51.438;6.978;2023-04-06T05:47:58;100349.47;;;7.86;50.45
2339;BME280;1180;51.438;6.978;2023-04-06T05:50:23;100351.38;;;8.00;50.48
2339;BME280;1180;51.438;6.978;2023-04-06T05:52:49;100348.28;;;8.13;50.49
2339;BME280;1180;51.438;6.978;2023-04-06T05:55:16;100345.94;;;8.26;50.43
2339;BME280;1180;51.438;6.978;2023-04-06T05:57:41;100355.03;;;8.14;49.97
2339;BME280;1180;51.438;6.978;2023-04-06T06:00:07;100355.84;;;8.14;50.01
2339;BME280;1180;51.438;6.978;2023-04-06T06:02:35;100347.06;;;8.20;50.28
2339;BME280;1180;51.438;6.978;2023-04-06T06:05:01;100351.03;;;8.26;50.64
2339;BME280;1180;51.438;6.978;2023-04-06T06:07:26;100349.13;;;8.31;50.54
2339;BME280;1180;51.438;6.978;2023-04-06T06:09:51;100340.53;;;8.32;50.32
2339;BME280;1180;51.438;6.978;2023-04-06T06:12:17;100344.06;;;8.29;49.93
2339;BME280;1180;51.438;6.978;2023-04-06T06:14:42;100342.94;;;8.35;50.16
2339;BME280;1180;51.438;6.978;2023-04-06T06:17:08;100344.13;;;8.28;49.97
2339;BME280;1180;51.438;6.978;2023-04-06T06:19:33;100349.38;;;8.61;61.51
2339;BME280;1180;51.438;6.978;2023-04-06T06:21:59;100338.66;;;9.22;64.31
2339;BME280;1180;51.438;6.978;2023-04-06T06:24:28;100337.28;;;9.48;50.48
2339;BME280;1180;51.438;6.978;2023-04-06T06:26:53;100336.47;;;9.64;48.88
2339;BME280;1180;51.438;6.978;2023-04-06T06:29:19;100339.69;;;9.51;48.11
2339;BME280;1180;51.438;6.978;2023-04-06T06:31:44;100339.50;;;9.38;47.99
2339;BME280;1180;51.438;6.978;2023-04-06T06:34:10;100342.47;;;9.31;48.40
2339;BME280;1180;51.438;6.978;2023-04-06T06:36:37;100345.41;;;9.23;47.65
2339;BME280;1180;51.438;6.978;2023-04-06T06:39:03;100349.72;;;9.22;48.33
2339;BME280;1180;51.438;6.978;2023-04-06T06:41:29;100348.50;;;9.30;48.41
2339;BME280;1180;51.438;6.978;2023-04-06T06:43:54;100342.69;;;9.26;48.03
2339;BME280;1180;51.438;6.978;2023-04-06T06:46:20;100347.22;;;9.21;48.03
2339;BME280;1180;51.438;6.978;2023-04-06T06:48:45;100338.97;;;9.16;48.36
2339;BME280;1180;51.438;6.978;2023-04-06T06:51:11;100339.53;;;9.05;48.10
2339;BME280;1180;51.438;6.978;2023-04-06T06:53:37;100334.06;;;9.11;48.14
2339;BME280;1180;51.438;6.978;2023-04-06T06:56:02;100343.28;;;9.15;48.28
2339;BME280;1180;51.438;6.978;2023-04-06T06:58:28;100335.81;;;9.10;48.16
2339;BME280;1180;51.438;6.978;2023-04-06T07:00:57;100338.91;;;9.17;48.35
2339;BME280;1180;51.438;6.978;2023-04-06T07:03:25;100341.94;;;9.24;48.26
2339;BME280;1180;51.438;6.978;2023-04-06T07:05:52;100337.84;;;9.37;48.16
2339;BME280;1180;51.438;6.978;2023-04-06T07:08:22;100335.63;;;9.47;47.95
2339;BME280;1180;51.438;6.978;2023-04-06T07:10:48;100337.69;;;9.57;47.77
2339;BME280;1180;51.438;6.978;2023-04-06T07:13:14;100335.66;;;9.63;47.53
2339;BME280;1180;51.438;6.978;2023-04-06T07:15:47;100333.38;;;9.57;47.85
2339;BME280;1180;51.438;6.978;2023-04-06T07:18:12;100332.41;;;9.60;47.44
2339;BME280;1180;51.438;6.978;2023-04-06T07:20:38;100337.47;;;9.61;47.54
2339;BME280;1180;51.438;6.978;2023-04-06T07:23:03;100334.22;;;9.74;47.28
2339;BME280;1180;51.438;6.978;2023-04-06T07:25:29;100333.31;;;9.75;47.29
2339;BME280;1180;51.438;6.978;2023-04-06T07:27:54;100328.59;;;9.83;47.30
2339;BME280;1180;51.438;6.978;2023-04-06T07:30:20;100327.16;;;9.93;46.92
2339;BME280;1180;51.438;6.978;2023-04-06T07:32:47;100333.28;;;10.07;46.66
2339;BME280;1180;51.438;6.978;2023-04-06T07:35:12;100329.63;;;10.11;46.56
2339;BME280;1180;51.438;6.978;2023-04-06T07:37:38;100325.91;;;10.17;46.80
2339;BME280;1180;51.438;6.978;2023-04-06T07:40:03;100323.53;;;10.28;46.57
2339;BME280;1180;51.438;6.978;2023-04-06T07:42:29;100326.94;;;10.45;45.92
2339;BME280;1180;51.438;6.978;2023-04-06T07:44:54;100322.06;;;10.54;46.28
2339;BME280;1180;51.438;6.978;2023-04-06T07:47:20;100326.03;;;10.60;46.25
2339;BME280;1180;51.438;6.978;2023-04-06T07:49:47;100324.50;;;10.72;45.98
2339;BME280;1180;51.438;6.978;2023-04-06T07:52:12;100322.75;;;10.87;46.15
2339;BME280;1180;51.438;6.978;2023-04-06T07:54:40;100323.78;;;10.99;45.13
2339;BME280;1180;51.438;6.978;2023-04-06T07:57:05;100323.56;;;11.17;44.76
2339;BME280;1180;51.438;6.978;2023-04-06T07:59:30;100323.19;;;11.23;44.77
2339;BME280;1180;51.438;6.978;2023-04-06T08:01:56;100321.72;;;11.33;44.09
2339;BME280;1180;51.438;6.978;2023-04-06T08:04:21;100323.81;;;11.41;44.51
2339;BME280;1180;51.438;6.978;2023-04-06T08:06:47;100324.34;;;11.61;43.54
2339;BME280;1180;51.438;6.978;2023-04-06T08:09:12;100326.91;;;11.61;43.68
2339;BME280;1180;51.438;6.978;2023-04-06T08:11:37;100322.75;;;11.73;43.67
2339;BME280;1180;51.438;6.978;2023-04-06T08:14:03;100323.28;;;11.78;44.42
2339;BME280;1180;51.438;6.978;2023-04-06T08:16:28;100318.41;;;11.73;43.70
2339;BME280;1180;51.438;6.978;2023-04-06T08:18:54;100323.06;;;11.81;43.95
2339;BME280;1180;51.438;6.978;2023-04-06T08:21:19;100313.00;;;11.78;43.71
2339;BME280;1180;51.438;6.978;2023-04-06T08:23:44;100327.94;;;11.85;43.32
2339;BME280;1180;51.438;6.978;2023-04-06T08:26:11;100329.47;;;12.03;42.69
2339;BME280;1180;51.438;6.978;2023-04-06T08:28:37;100324.56;;;12.12;42.97
2339;BME280;1180;51.438;6.978;2023-04-06T08:31:06;100320.25;;;12.26;42.06
2339;BME280;1180;51.438;6.978;2023-04-06T08:33:33;100319.25;;;12.28;41.84
2339;BME280;1180;51.438;6.978;2023-04-06T08:36:07;100324.69;;;12.37;42.52
2339;BME280;1180;51.438;6.978;2023-04-06T08:38:33;100323.38;;;12.44;42.93
2339;BME280;1180;51.438;6.978;2023-04-06T08:40:58;100325.31;;;12.53;42.30
2339;BME280;1180;51.438;6.978;2023-04-06T08:43:24;100322.03;;;12.51;42.71
2339;BME280;1180;51.438;6.978;2023-04-06T08:45:52;100320.31;;;12.65;41.34
2339;BME280;1180;51.438;6.978;2023-04-06T08:48:18;100315.22;;;12.50;41.61
2339;BME280;1180;51.438;6.978;2023-04-06T08:50:43;100319.25;;;12.67;41.98
2339;BME280;1180;51.438;6.978;2023-04-06T08:53:11;100310.81;;;12.65;41.96
2339;BME280;1180;51.438;6.978;2023-04-06T08:55:38;100310.94;;;12.64;41.57
2339;BME280;1180;51.438;6.978;2023-04-06T08:58:06;100303.81;;;12.67;41.81
2339;BME280;1180;51.438;6.978;2023-04-06T09:00:33;100301.66;;;12.74;41.77
2339;BME280;1180;51.438;6.978;2023-04-06T09:03:03;100307.44;;;12.78;40.71
2339;BME280;1180;51.438;6.978;2023-04-06T09:05:29;100299.56;;;12.92;41.32
2339;BME280;1180;51.438;6.978;2023-04-06T09:07:54;100302.00;;;13.07;41.76
2339;BME280;1180;51.438;6.978;2023-04-06T09:10:20;100302.72;;;13.09;41.50
2339;BME280;1180;51.438;6.978;2023-04-06T09:12:46;100302.13;;;13.05;41.97
2339;BME280;1180;51.438;6.978;2023-04-06T09:15:21;100301.50;;;13.02;41.74
2339;BME280;1180;51.438;6.978;2023-04-06T09:17:47;100309.13;;;13.16;41.21
2339;BME280;1180;51.438;6.978;2023-04-06T09:20:12;100306.44;;;13.18;41.12
2339;BME280;1180;51.438;6.978;2023-04-06T09:22:39;100300.53;;;13.28;40.38
2339;BME280;1180;51.438;6.978;2023-04-06T09:25:05;100302.66;;;13.35;40.44
2339;BME280;1180;51.438;6.978;2023-04-06T09:27:32;100297.06;;;13.54;40.38
2339;BME280;1180;51.438;6.978;2023-04-06T09:30:09;100304.25;;;13.62;41.04
2339;BME280;1180;51.438;6.978;2023-04-06T09:32:49;100299.50;;;13.68;40.60
2339;BME280;1180;51.438;6.978;2023-04-06T09:35:15;100296.22;;;13.66;40.49
2339;BME280;1180;51.438;6.978;2023-04-06T09:37:41;100288.50;;;13.78;40.55
2339;BME280;1180;51.438;6.978;2023-04-06T09:40:07;100293.06;;;13.74;40.53
2339;BME280;1180;51.438;6.978;2023-04-06T09:42:34;100292.78;;;13.90;40.91
2339;BME280;1180;51.438;6.978;2023-04-06T09:45:00;100285.53;;;13.95;40.84
2339;BME280;1180;51.438;6.978;2023-04-06T09:47:26;100283.00;;;14.07;40.56
2339;BME280;1180;51.438;6.978;2023-04-06T09:49:57;100285.81;;;14.04;39.86
2339;BME280;1180;51.438;6.978;2023-04-06T09:52:27;100284.88;;;14.16;40.71
2339;BME280;1180;51.438;6.978;2023-04-06T09:54:59;100281.88;;;14.34;40.77
2339;BME280;1180;51.438;6.978;2023-04-06T10:00:34;100272.97;;;14.49;39.92
2339;BME280;1180;51.438;6.978;2023-04-06T10:05:50;100277.09;;;14.63;40.16
2339;BME280;1180;51.438;6.978;2023-04-06T10:08:17;100276.41;;;14.72;39.45
2339;BME280;1180;51.438;6.978;2023-04-06T10:10:44;100278.78;;;14.76;39.49
2339;BME280;1180;51.438;6.978;2023-04-06T10:13:10;100277.13;;;14.86;39.18
2339;BME280;1180;51.438;6.978;2023-04-06T10:15:37;100272.31;;;14.81;39.10
2339;BME280;1180;51.438;6.978;2023-04-06T10:18:03;100270.91;;;15.00;39.51
2339;BME280;1180;51.438;6.978;2023-04-06T10:25:30;100273.22;;;15.14;39.43
2339;BME280;1180;51.438;6.978;2023-04-06T10:28:01;100262.78;;;15.16;39.99
2339;BME280;1180;51.438;6.978;2023-04-06T10:30:28;100274.38;;;15.22;39.78
2339;BME280;1180;51.438;6.978;2023-04-06T10:32:53;100278.00;;;15.42;39.59
2339;BME280;1180;51.438;6.978;2023-04-06T10:35:18;100278.06;;;15.52;39.17
2339;BME280;1180;51.438;6.978;2023-04-06T10:37:51;100265.13;;;15.52;39.14
2339;BME280;1180;51.438;6.978;2023-04-06T10:40:19;100269.34;;;15.53;38.93
2339;BME280;1180;51.438;6.978;2023-04-06T10:42:44;100265.88;;;15.42;39.55
2339;BME280;1180;51.438;6.978;2023-04-06T10:45:27;100270.34;;;15.40;38.94
2339;BME280;1180;51.438;6.978;2023-04-06T10:47:56;100265.97;;;15.52;39.07
2339;BME280;1180;51.438;6.978;2023-04-06T10:50:22;100267.88;;;15.71;38.97
2339;BME280;1180;51.438;6.978;2023-04-06T10:53:01;100269.72;;;15.81;39.58
2339;BME280;1180;51.438;6.978;2023-04-06T10:55:28;100254.63;;;15.97;38.55
2339;BME280;1180;51.438;6.978;2023-04-06T10:57:54;100262.69;;;16.04;38.39
2339;BME280;1180;51.438;6.978;2023-04-06T11:00:20;100260.63;;;15.98;38.09
2339;BME280;1180;51.438;6.978;2023-04-06T11:02:46;100257.66;;;16.02;38.80
2339;BME280;1180;51.438;6.978;2023-04-06T11:05:12;100262.84;;;16.02;38.46
2339;BME280;1180;51.438;6.978;2023-04-06T11:07:39;100253.53;;;16.00;38.68
2339;BME280;1180;51.438;6.978;2023-04-06T11:10:06;100256.72;;;16.03;38.84
2339;BME280;1180;51.438;6.978;2023-04-06T11:12:31;100266.88;;;15.95;39.29
2339;BME280;1180;51.438;6.978;2023-04-06T11:14:58;100254.38;;;16.22;39.25
2339;BME280;1180;51.438;6.978;2023-04-06T11:17:30;100253.59;;;16.31;38.97
2339;BME280;1180;51.438;6.978;2023-04-06T11:19:57;100248.84;;;16.36;39.32
2339;BME280;1180;51.438;6.978;2023-04-06T11:22:23;100256.50;;;16.38;38.30
2339;BME280;1180;51.438;6.978;2023-04-06T11:24:49;100254.63;;;16.19;38.58
2339;BME280;1180;51.438;6.978;2023-04-06T11:27:15;100253.78;;;16.18;39.04
2339;BME280;1180;51.438;6.978;2023-04-06T11:29:41;100252.28;;;16.15;39.70
2339;BME280;1180;51.438;6.978;2023-04-06T11:32:07;100249.28;;;16.20;39.75
2339;BME280;1180;51.438;6.978;2023-04-06T11:34:37;100243.16;;;16.21;38.77
2339;BME280;1180;51.438;6.978;2023-04-06T11:37:07;100244.22;;;16.40;39.37
2339;BME280;1180;51.438;6.978;2023-04-06T11:39:38;100241.81;;;16.48;39.11
2339;BME280;1180;51.438;6.978;2023-04-06T11:42:04;100245.66;;;16.54;39.24
2339;BME280;1180;51.438;6.978;2023-04-06T11:44:42;100237.94;;;16.64;39.61
2339;BME280;1180;51.438;6.978;2023-04-06T11:47:11;100240.22;;;16.57;38.73
2339;BME280;1180;51.438;6.978;2023-04-06T11:49:38;100235.06;;;16.67;39.32
2339;BME280;1180;51.438;6.978;2023-04-06T11:52:18;100232.63;;;16.75;39.25
2339;BME280;1180;51.438;6.978;2023-04-06T11:54:44;100235.88;;;16.57;38.39
2339;BME280;1180;51.438;6.978;2023-04-06T11:57:11;100240.34;;;16.55;38.17
2339;BME280;1180;51.438;6.978;2023-04-06T11:59:37;100238.88;;;16.63;38.46
2339;BME280;1180;51.438;6.978;2023-04-06T12:02:03;100240.09;;;16.68;38.42
2339;BME280;1180;51.438;6.978;2023-04-06T12:04:28;100240.91;;;16.59;38.45
2339;BME280;1180;51.438;6.978;2023-04-06T12:06:54;100234.78;;;16.60;38.63
2339;BME280;1180;51.438;6.978;2023-04-06T12:09:21;100227.84;;;16.70;37.83
2339;BME280;1180;51.438;6.978;2023-04-06T12:11:46;100231.69;;;16.76;38.72
2339;BME280;1180;51.438;6.978;2023-04-06T12:14:12;100239.47;;;16.76;39.06
2339;BME280;1180;51.438;6.978;2023-04-06T12:16:38;100234.53;;;16.73;39.63
2339;BME280;1180;51.438;6.978;2023-04-06T12:19:03;100235.63;;;16.70;39.14
2339;BME280;1180;51.438;6.978;2023-04-06T12:21:30;100227.16;;;16.58;39.04
2339;BME280;1180;51.438;6.978;2023-04-06T12:23:56;100228.69;;;16.40;40.05
2339;BME280;1180;51.438;6.978;2023-04-06T12:26:24;100234.31;;;16.45;40.75
2339;BME280;1180;51.438;6.978;2023-04-06T12:28:50;100232.41;;;16.47;40.70
2339;BME280;1180;51.438;6.978;2023-04-06T12:31:20;100241.31;;;16.33;41.20
2339;BME280;1180;51.438;6.978;2023-04-06T12:33:47;100238.81;;;16.22;41.44
2339;BME280;1180;51.438;6.978;2023-04-06T12:36:18;100241.41;;;16.22;41.10
2339;BME280;1180;51.438;6.978;2023-04-06T12:38:47;100244.09;;;16.10;41.39
2339;BME280;1180;51.438;6.978;2023-04-06T12:41:13;100244.31;;;16.07;41.75
2339;BME280;1180;51.438;6.978;2023-04-06T12:43:41;100241.44;;;16.00;42.01
2339;BME280;1180;51.438;6.978;2023-04-06T12:46:06;100248.00;;;16.05;42.66
2339;BME280;1180;51.438;6.978;2023-04-06T12:48:32;100242.63;;;15.96;42.60
2339;BME280;1180;51.438;6.978;2023-04-06T12:50:59;100241.09;;;15.94;42.37
2339;BME280;1180;51.438;6.978;2023-04-06T12:53:26;100236.06;;;15.92;42.59
2339;BME280;1180;51.438;6.978;2023-04-06T12:55:53;100240.31;;;15.93;42.54
2339;BME280;1180;51.438;6.978;2023-04-06T12:58:19;100231.00;;;15.91;43.49
2339;BME280;1180;51.438;6.978;2023-04-06T13:00:46;100238.41;;;15.95;43.00
2339;BME280;1180;51.438;6.978;2023-04-06T13:03:11;100240.91;;;15.85;43.33
2339;BME280;1180;51.438;6.978;2023-04-06T13:05:43;100230.38;;;15.98;42.59
2339;BME280;1180;51.438;6.978;2023-04-06T13:08:09;100234.63;;;15.99;42.54
2339;BME280;1180;51.438;6.978;2023-04-06T13:10:35;100223.88;;;16.04;42.89
2339;BME280;1180;51.438;6.978;2023-04-06T13:13:01;100232.22;;;16.08;42.96
2339;BME280;1180;51.438;6.978;2023-04-06T13:15:26;100232.13;;;16.19;43.25
2339;BME280;1180;51.438;6.978;2023-04-06T13:17:52;100228.31;;;16.23;43.19
2339;BME280;1180;51.438;6.978;2023-04-06T13:20:18;100222.47;;;16.21;42.99
2339;BME280;1180;51.438;6.978;2023-04-06T13:22:43;100222.53;;;16.10;43.90